sensor_id;sensor_type;location;lat;lon;timestamp;temperature;humidity
12771;DHT22;6449;47.666;9.160;2023-07-29T00:00:58;17.50;99.90
12771;DHT22;6449;47.666;9.160;2023-07-29T00:05:53;17.60;99.90
12771;DHT22;6449;47.666;9.160;2023-07-29T00:10:47;17.70;99.90
12771;DHT22;6449;47.666;9.160;2023-07-29T00:15:41;17.60;99.90
12771;DHT22;6449;47.666;9.160;2023-07-29T00:20:34;17.60;99.90
12771;DHT22;6449;47.666;9.160;2023-07-29T00:25:27;17.50;99.90
12771;DHT22;6449;47.666;9.160;2023-07-29T00:30:22;17.50;99.90
12771;DHT22;6449;47.666;9.160;2023-07-29T00:35:16;17.60;99.90
12771;DHT22;6449;47.666;9.160;2023-07-29T00:40:15;17.70;99.90
12771;DHT22;6449;47.666;9.160;2023-07-29T00:45:13;17.60;99.90
12771;DHT22;6449;47.666;9.160;2023-07-29T00:50:09;17.60;99.90
12771;DHT22;6449;47.666;9.160;2023-07-29T00:55:05;17.60;99.90
12771;DHT22;6449;47.666;9.160;2023-07-29T00:59:59;17.50;99.90
12771;DHT22;6449;47.666;9.160;2023-07-29T01:04:54;17.40;99.90
12771;DHT22;6449;47.666;9.160;2023-07-29T01:09:54;17.30;99.90
12771;DHT22;6449;47.666;9.160;2023-07-29T01:14:57;17.20;99.90
12771;DHT22;6449;47.666;9.160;2023-07-29T01:20:01;17.20;99.90
12771;DHT22;6449;47.666;9.160;2023-07-29T01:25:02;17.10;99.90
12771;DHT22;6449;47.666;9.160;2023-07-29T01:29:57;17.20;99.90
12771;DHT22;6449;47.666;9.160;2023-07-29T01:34:58;17.30;99.90
12771;DHT22;6449;47.666;9.160;2023-07-29T01:39:57;17.40;99.90
12771;DHT22;6449;47.666;9.160;2023-07-29T01:44:54;17.30;99.90
12771;DHT22;6449;47.666;9.160;2023-07-29T01:49:47;17.30;99.90
12771;DHT22;6449;47.666;9.160;2023-07-29T01:54:41;17.10;99.90
12771;DHT22;6449;47.666;9.160;2023-07-29T01:59:34;17.10;99.90
12771;DHT22;6449;47.666;9.160;2023-07-29T02:04:29;16.90;99.90
12771;DHT22;6449;47.666;9.160;2023-07-29T02:09:22;17.00;99.90
12771;DHT22;6449;47.666;9.160;2023-07-29T02:14:17;17.00;99.90
12771;DHT22;6449;47.666;9.160;2023-07-29T02:19:11;17.00;99.90
12771;DHT22;6449;47.666;9.160;2023-07-29T02:24:06;17.00;99.90
12771;DHT22;6449;47.666;9.160;2023-07-29T02:28:59;17.00;99.90
12771;DHT22;6449;47.666;9.160;2023-07-29T02:33:52;17.10;99.90
12771;DHT22;6449;47.666;9.160;2023-07-29T02:38:46;17.00;99.90
12771;DHT22;6449;47.666;9.160;2023-07-29T02:43:42;16.90;99.90
12771;DHT22;6449;47.666;9.160;2023-07-29T02:48:35;16.90;99.90
12771;DHT22;6449;47.666;9.160;2023-07-29T02:53:29;17.00;99.90
12771;DHT22;6449;47.666;9.160;2023-07-29T02:58:22;17.00;99.90
12771;DHT22;6449;47.666;9.160;2023-07-29T03:03:17;16.90;99.90
12771;DHT22;6449;47.666;9.160;2023-07-29T03:08:11;17.00;99.90
12771;DHT22;6449;47.666;9.160;2023-07-29T03:13:05;17.00;99.90
12771;DHT22;6449;47.666;9.160;2023-07-29T03:17:58;17.00;99.90
12771;DHT22;6449;47.666;9.160;2023-07-29T03:22:53;17.10;99.90
12771;DHT22;6449;47.666;9.160;2023-07-29T03:27:46;17.20;99.90
12771;DHT22;6449;47.666;9.160;2023-07-29T03:32:43;17.00;99.90
12771;DHT22;6449;47.666;9.160;2023-07-29T03:37:38;17.00;99.90
12771;DHT22;6449;47.666;9.160;2023-07-29T03:42:33;17.10;99.90
12771;DHT22;6449;47.666;9.160;2023-07-29T03:47:27;17.10;99.90
12771;DHT22;6449;47.666;9.160;2023-07-29T03:52:20;17.20;99.90
12771;DHT22;6449;47.666;9.160;2023-07-29T03:57:14;17.20;99.90
12771;DHT22;6449;47.666;9.160;2023-07-29T04:02:08;17.30;99.90
12771;DHT22;6449;47.666;9.160;2023-07-29T04:07:02;17.30;99.90
12771;DHT22;6449;47.666;9.160;2023-07-29T04:11:56;17.30;99.90
12771;DHT22;6449;47.666;9.160;2023-07-29T04:16:49;17.20;99.90
12771;DHT22;6449;47.666;9.160;2023-07-29T04:21:44;17.10;99.90
12771;DHT22;6449;47.666;9.160;2023-07-29T04:26:38;17.10;99.90
12771;DHT22;6449;47.666;9.160;2023-07-29T04:31:31;17.20;99.90
12771;DHT22;6449;47.666;9.160;2023-07-29T04:36:25;17.30;99.90
12771;DHT22;6449;47.666;9.160;2023-07-29T04:41:19;17.30;99.90
12771;DHT22;6449;47.666;9.160;2023-07-29T04:46:13;17.40;99.90
12771;DHT22;6449;47.666;9.160;2023-07-29T04:51:06;17.50;99.90
12771;DHT22;6449;47.666;9.160;2023-07-29T04:56:00;17.40;99.90
12771;DHT22;6449;47.666;9.160;2023-07-29T05:00:55;17.40;99.90
12771;DHT22;6449;47.666;9.160;2023-07-29T05:05:49;17.40;99.90
12771;DHT22;6449;47.666;9.160;2023-07-29T05:10:43;17.40;99.90
12771;DHT22;6449;47.666;9.160;2023-07-29T05:15:36;17.50;99.90
12771;DHT22;6449;47.666;9.160;2023-07-29T05:20:31;17.40;99.90
12771;DHT22;6449;47.666;9.160;2023-07-29T05:25:24;17.40;99.90
12771;DHT22;6449;47.666;9.160;2023-07-29T05:30:18;17.50;99.90
12771;DHT22;6449;47.666;9.160;2023-07-29T05:35:11;17.60;99.90
12771;DHT22;6449;47.666;9.160;2023-07-29T05:40:07;17.70;99.90
12771;DHT22;6449;47.666;9.160;2023-07-29T05:45:02;17.90;99.90
12771;DHT22;6449;47.666;9.160;2023-07-29T05:49:55;17.90;99.90
12771;DHT22;6449;47.666;9.160;2023-07-29T05:54:52;18.00;99.90
12771;DHT22;6449;47.666;9.160;2023-07-29T05:59:46;18.00;99.90
12771;DHT22;6449;47.666;9.160;2023-07-29T06:04:40;17.90;99.90
12771;DHT22;6449;47.666;9.160;2023-07-29T06:09:33;17.90;99.90
12771;DHT22;6449;47.666;9.160;2023-07-29T06:14:27;18.00;99.90
12771;DHT22;6449;47.666;9.160;2023-07-29T06:19:21;18.10;99.90
12771;DHT22;6449;47.666;9.160;2023-07-29T06:24:15;18.20;99.90
12771;DHT22;6449;47.666;9.160;2023-07-29T06:29:08;18.40;99.90
12771;DHT22;6449;47.666;9.160;2023-07-29T06:34:01;18.60;99.90
12771;DHT22;6449;47.666;9.160;2023-07-29T06:38:56;18.70;99.90
12771;DHT22;6449;47.666;9.160;2023-07-29T06:43:49;18.70;99.90
12771;DHT22;6449;47.666;9.160;2023-07-29T06:48:43;18.70;99.90
12771;DHT22;6449;47.666;9.160;2023-07-29T06:53:36;18.80;99.90
12771;DHT22;6449;47.666;9.160;2023-07-29T06:58:31;19.00;99.90
12771;DHT22;6449;47.666;9.160;2023-07-29T07:03:24;19.10;99.90
12771;DHT22;6449;47.666;9.160;2023-07-29T07:08:18;19.10;99.90
12771;DHT22;6449;47.666;9.160;2023-07-29T07:13:11;19.30;99.90
12771;DHT22;6449;47.666;9.160;2023-07-29T07:18:06;19.50;99.90
12771;DHT22;6449;47.666;9.160;2023-07-29T07:22:59;19.60;99.90
12771;DHT22;6449;47.666;9.160;2023-07-29T07:27:52;19.70;99.90
12771;DHT22;6449;47.666;9.160;2023-07-29T07:32:46;19.80;99.90
12771;DHT22;6449;47.666;9.160;2023-07-29T07:37:41;19.90;99.90
12771;DHT22;6449;47.666;9.160;2023-07-29T07:42:34;20.00;99.90
12771;DHT22;6449;47.666;9.160;2023-07-29T07:47:27;20.40;99.90
12771;DHT22;6449;47.666;9.160;2023-07-29T07:52:21;20.70;99.90
12771;DHT22;6449;47.666;9.160;2023-07-29T07:57:15;20.90;99.90
12771;DHT22;6449;47.666;9.160;2023-07-29T08:02:09;21.10;99.90
12771;DHT22;6449;47.666;9.160;2023-07-29T08:07:03;21.30;99.90
12771;DHT22;6449;47.666;9.160;2023-07-29T08:11:56;21.40;99.90
12771;DHT22;6449;47.666;9.160;2023-07-29T08:16:51;21.50;99.90
12771;DHT22;6449;47.666;9.160;2023-07-29T08:21:44;21.80;99.90
12771;DHT22;6449;47.666;9.160;2023-07-29T08:26:38;22.10;99.90
12771;DHT22;6449;47.666;9.160;2023-07-29T08:31:31;22.30;99.90
12771;DHT22;6449;47.666;9.160;2023-07-29T08:36:27;22.50;99.90
12771;DHT22;6449;47.666;9.160;2023-07-29T08:41:25;22.50;99.90
12771;DHT22;6449;47.666;9.160;2023-07-29T08:46:22;22.30;99.90
12771;DHT22;6449;47.666;9.160;2023-07-29T08:51:17;22.10;99.90
12771;DHT22;6449;47.666;9.160;2023-07-29T08:56:15;22.10;99.90
12771;DHT22;6449;47.666;9.160;2023-07-29T09:01:09;22.20;99.90
12771;DHT22;6449;47.666;9.160;2023-07-29T09:06:03;22.10;99.90
12771;DHT22;6449;47.666;9.160;2023-07-29T09:10:56;22.30;99.90
12771;DHT22;6449;47.666;9.160;2023-07-29T09:15:54;22.50;99.90
12771;DHT22;6449;47.666;9.160;2023-07-29T09:20:49;22.70;99.90
12771;DHT22;6449;47.666;9.160;2023-07-29T09:25:43;22.70;99.90
12771;DHT22;6449;47.666;9.160;2023-07-29T09:30:39;22.90;99.90
12771;DHT22;6449;47.666;9.160;2023-07-29T09:35:37;23.10;99.90
12771;DHT22;6449;47.666;9.160;2023-07-29T09:40:34;23.30;99.90
12771;DHT22;6449;47.666;9.160;2023-07-29T09:45:29;23.50;99.90
12771;DHT22;6449;47.666;9.160;2023-07-29T09:50:23;23.80;99.90
12771;DHT22;6449;47.666;9.160;2023-07-29T09:55:20;23.80;99.90
12771;DHT22;6449;47.666;9.160;2023-07-29T10:00:15;23.90;99.90
12771;DHT22;6449;47.666;9.160;2023-07-29T10:05:10;24.20;99.90
12771;DHT22;6449;47.666;9.160;2023-07-29T10:10:05;24.10;99.90
12771;DHT22;6449;47.666;9.160;2023-07-29T10:15:02;24.00;99.90
12771;DHT22;6449;47.666;9.160;2023-07-29T10:19:57;24.10;99.90
12771;DHT22;6449;47.666;9.160;2023-07-29T10:24:51;24.10;99.90
12771;DHT22;6449;47.666;9.160;2023-07-29T10:29:49;24.40;99.90
12771;DHT22;6449;47.666;9.160;2023-07-29T10:34:45;24.80;99.90
12771;DHT22;6449;47.666;9.160;2023-07-29T10:39:40;25.10;99.90
12771;DHT22;6449;47.666;9.160;2023-07-29T10:44:49;25.10;99.90
12771;DHT22;6449;47.666;9.160;2023-07-29T10:49:46;24.70;99.90
12771;DHT22;6449;47.666;9.160;2023-07-29T10:54:44;24.20;99.90
12771;DHT22;6449;47.666;9.160;2023-07-29T10:59:38;24.40;99.90
12771;DHT22;6449;47.666;9.160;2023-07-29T11:04:31;24.60;99.90
12771;DHT22;6449;47.666;9.160;2023-07-29T11:09:45;24.90;99.90
12771;DHT22;6449;47.666;9.160;2023-07-29T11:14:48;25.20;99.90
12771;DHT22;6449;47.666;9.160;2023-07-29T11:19:41;25.20;99.90
12771;DHT22;6449;47.666;9.160;2023-07-29T11:24:35;25.30;99.90
12771;DHT22;6449;47.666;9.160;2023-07-29T11:29:30;25.40;99.90
12771;DHT22;6449;47.666;9.160;2023-07-29T11:34:31;25.40;99.90
12771;DHT22;6449;47.666;9.160;2023-07-29T11:39:24;25.40;99.90
12771;DHT22;6449;47.666;9.160;2023-07-29T11:44:18;25.40;99.90
12771;DHT22;6449;47.666;9.160;2023-07-29T11:49:14;25.30;99.90
12771;DHT22;6449;47.666;9.160;2023-07-29T11:54:07;25.00;99.90
12771;DHT22;6449;47.666;9.160;2023-07-29T11:59:01;24.80;99.90
12771;DHT22;6449;47.666;9.160;2023-07-29T12:03:55;24.70;99.90
12771;DHT22;6449;47.666;9.160;2023-07-29T12:08:51;24.90;99.90
12771;DHT22;6449;47.666;9.160;2023-07-29T12:13:47;25.40;99.90
12771;DHT22;6449;47.666;9.160;2023-07-29T12:18:41;25.30;99.90
12771;DHT22;6449;47.666;9.160;2023-07-29T12:23:36;24.90;99.90
12771;DHT22;6449;47.666;9.160;2023-07-29T12:28:30;24.50;99.90
12771;DHT22;6449;47.666;9.160;2023-07-29T12:33:30;24.10;99.90
12771;DHT22;6449;47.666;9.160;2023-07-29T12:38:26;23.60;99.90
12771;DHT22;6449;47.666;9.160;2023-07-29T12:43:20;23.20;99.90
12771;DHT22;6449;47.666;9.160;2023-07-29T12:48:15;22.80;99.90
12771;DHT22;6449;47.666;9.160;2023-07-29T12:53:09;22.40;99.90
12771;DHT22;6449;47.666;9.160;2023-07-29T12:58:04;22.20;99.90
12771;DHT22;6449;47.666;9.160;2023-07-29T13:02:59;21.90;99.90
12771;DHT22;6449;47.666;9.160;2023-07-29T13:07:59;21.80;99.90
12771;DHT22;6449;47.666;9.160;2023-07-29T13:12:55;21.70;99.90
12771;DHT22;6449;47.666;9.160;2023-07-29T13:17:48;21.70;99.90
12771;DHT22;6449;47.666;9.160;2023-07-29T13:22:42;21.80;99.90
12771;DHT22;6449;47.666;9.160;2023-07-29T13:27:36;21.60;99.90
12771;DHT22;6449;47.666;9.160;2023-07-29T13:32:30;21.40;99.90
12771;DHT22;6449;47.666;9.160;2023-07-29T13:37:23;21.20;99.90
12771;DHT22;6449;47.666;9.160;2023-07-29T13:42:17;21.00;99.90
12771;DHT22;6449;47.666;9.160;2023-07-29T13:47:11;20.90;99.90
12771;DHT22;6449;47.666;9.160;2023-07-29T13:52:05;20.80;99.90
12771;DHT22;6449;47.666;9.160;2023-07-29T13:56:58;20.70;99.90
12771;DHT22;6449;47.666;9.160;2023-07-29T14:01:52;20.50;99.90
12771;DHT22;6449;47.666;9.160;2023-07-29T14:06:47;20.40;99.90
12771;DHT22;6449;47.666;9.160;2023-07-29T14:11:49;20.20;99.90
12771;DHT22;6449;47.666;9.160;2023-07-29T14:16:43;20.10;99.90
12771;DHT22;6449;47.666;9.160;2023-07-29T14:21:36;20.00;99.90
12771;DHT22;6449;47.666;9.160;2023-07-29T14:26:31;20.00;99.90
12771;DHT22;6449;47.666;9.160;2023-07-29T14:31:24;20.10;99.90
12771;DHT22;6449;47.666;9.160;2023-07-29T14:36:18;20.20;99.90
12771;DHT22;6449;47.666;9.160;2023-07-29T14:41:11;20.40;99.90
12771;DHT22;6449;47.666;9.160;2023-07-29T14:46:06;20.70;99.90
12771;DHT22;6449;47.666;9.160;2023-07-29T14:50:59;20.80;99.90
12771;DHT22;6449;47.666;9.160;2023-07-29T14:55:53;20.70;99.90
12771;DHT22;6449;47.666;9.160;2023-07-29T15:00:46;20.60;99.90
12771;DHT22;6449;47.666;9.160;2023-07-29T15:05:41;20.60;99.90
12771;DHT22;6449;47.666;9.160;2023-07-29T15:10:35;20.50;99.90
12771;DHT22;6449;47.666;9.160;2023-07-29T15:15:28;20.50;99.90
12771;DHT22;6449;47.666;9.160;2023-07-29T15:20:22;20.30;99.90
12771;DHT22;6449;47.666;9.160;2023-07-29T15:25:17;20.20;99.90
12771;DHT22;6449;47.666;9.160;2023-07-29T15:30:10;20.00;99.90
12771;DHT22;6449;47.666;9.160;2023-07-29T15:35:05;20.00;99.90
12771;DHT22;6449;47.666;9.160;2023-07-29T15:39:59;20.10;99.90
12771;DHT22;6449;47.666;9.160;2023-07-29T15:44:53;20.10;99.90
12771;DHT22;6449;47.666;9.160;2023-07-29T15:49:47;20.20;99.90
12771;DHT22;6449;47.666;9.160;2023-07-29T15:54:40;20.20;99.90
12771;DHT22;6449;47.666;9.160;2023-07-29T15:59:34;20.30;99.90
12771;DHT22;6449;47.666;9.160;2023-07-29T16:04:29;20.30;99.90
12771;DHT22;6449;47.666;9.160;2023-07-29T16:09:23;20.40;99.90
12771;DHT22;6449;47.666;9.160;2023-07-29T16:14:16;20.30;99.90
12771;DHT22;6449;47.666;9.160;2023-07-29T16:19:11;20.30;99.90
12771;DHT22;6449;47.666;9.160;2023-07-29T16:24:06;20.20;99.90
12771;DHT22;6449;47.666;9.160;2023-07-29T16:28:59;20.20;99.90
12771;DHT22;6449;47.666;9.160;2023-07-29T16:33:52;20.10;99.90
12771;DHT22;6449;47.666;9.160;2023-07-29T16:38:46;20.10;99.90
12771;DHT22;6449;47.666;9.160;2023-07-29T16:43:40;20.10;99.90
12771;DHT22;6449;47.666;9.160;2023-07-29T16:48:34;20.20;99.90
12771;DHT22;6449;47.666;9.160;2023-07-29T16:53:27;20.10;99.90
12771;DHT22;6449;47.666;9.160;2023-07-29T16:58:20;20.10;99.90
12771;DHT22;6449;47.666;9.160;2023-07-29T17:03:15;20.00;99.90
12771;DHT22;6449;47.666;9.160;2023-07-29T17:08:10;19.90;99.90
12771;DHT22;6449;47.666;9.160;2023-07-29T17:13:03;19.90;99.90
12771;DHT22;6449;47.666;9.160;2023-07-29T17:17:56;19.90;99.90
12771;DHT22;6449;47.666;9.160;2023-07-29T17:22:51;19.90;99.90
12771;DHT22;6449;47.666;9.160;2023-07-29T17:27:44;19.80;99.90
12771;DHT22;6449;47.666;9.160;2023-07-29T17:32:38;19.70;99.90
12771;DHT22;6449;47.666;9.160;2023-07-29T17:37:32;19.70;99.90
12771;DHT22;6449;47.666;9.160;2023-07-29T17:42:27;19.70;99.90
12771;DHT22;6449;47.666;9.160;2023-07-29T17:47:21;19.70;99.90
12771;DHT22;6449;47.666;9.160;2023-07-29T17:52:14;19.80;99.90
12771;DHT22;6449;47.666;9.160;2023-07-29T17:57:08;19.60;99.90
12771;DHT22;6449;47.666;9.160;2023-07-29T18:02:03;19.60;99.90
12771;DHT22;6449;47.666;9.160;2023-07-29T18:06:56;19.70;99.90
12771;DHT22;6449;47.666;9.160;2023-07-29T18:11:50;19.70;99.90
12771;DHT22;6449;47.666;9.160;2023-07-29T18:16:43;19.60;99.90
12771;DHT22;6449;47.666;9.160;2023-07-29T18:21:38;19.50;99.90
12771;DHT22;6449;47.666;9.160;2023-07-29T18:26:31;19.50;99.90
12771;DHT22;6449;47.666;9.160;2023-07-29T18:31:26;19.50;99.90
12771;DHT22;6449;47.666;9.160;2023-07-29T18:36:19;19.60;99.90
12771;DHT22;6449;47.666;9.160;2023-07-29T18:41:14;19.60;99.90
12771;DHT22;6449;47.666;9.160;2023-07-29T18:46:07;19.60;99.90
12771;DHT22;6449;47.666;9.160;2023-07-29T18:51:01;19.50;99.90
12771;DHT22;6449;47.666;9.160;2023-07-29T18:55:56;19.30;99.90
12771;DHT22;6449;47.666;9.160;2023-07-29T19:00:51;19.30;99.90
12771;DHT22;6449;47.666;9.160;2023-07-29T19:05:45;19.20;99.90
12771;DHT22;6449;47.666;9.160;2023-07-29T19:10:38;19.10;99.90
12771;DHT22;6449;47.666;9.160;2023-07-29T19:15:31;19.00;99.90
12771;DHT22;6449;47.666;9.160;2023-07-29T19:20:26;19.00;99.90
12771;DHT22;6449;47.666;9.160;2023-07-29T19:25:21;18.90;99.90
12771;DHT22;6449;47.666;9.160;2023-07-29T19:30:15;18.90;99.90
12771;DHT22;6449;47.666;9.160;2023-07-29T19:35:08;18.90;99.90
12771;DHT22;6449;47.666;9.160;2023-07-29T19:40:04;18.90;99.90
12771;DHT22;6449;47.666;9.160;2023-07-29T19:44:58;18.90;99.90
12771;DHT22;6449;47.666;9.160;2023-07-29T19:49:52;18.80;99.90
12771;DHT22;6449;47.666;9.160;2023-07-29T19:54:45;18.70;99.90
12771;DHT22;6449;47.666;9.160;2023-07-29T19:59:40;18.70;99.90
12771;DHT22;6449;47.666;9.160;2023-07-29T20:04:40;18.70;99.90
12771;DHT22;6449;47.666;9.160;2023-07-29T20:09:33;18.80;99.90
12771;DHT22;6449;47.666;9.160;2023-07-29T20:14:27;18.80;99.90
12771;DHT22;6449;47.666;9.160;2023-07-29T20:19:21;18.80;99.90
12771;DHT22;6449;47.666;9.160;2023-07-29T20:24:15;18.80;99.90
12771;DHT22;6449;47.666;9.160;2023-07-29T20:29:08;18.80;99.90
12771;DHT22;6449;47.666;9.160;2023-07-29T20:34:02;18.70;99.90
12771;DHT22;6449;47.666;9.160;2023-07-29T20:38:56;18.70;99.90
12771;DHT22;6449;47.666;9.160;2023-07-29T20:43:50;18.70;99.90
12771;DHT22;6449;47.666;9.160;2023-07-29T20:48:44;18.70;99.90
12771;DHT22;6449;47.666;9.160;2023-07-29T20:53:37;18.70;99.90
12771;DHT22;6449;47.666;9.160;2023-07-29T20:58:32;18.70;99.90
12771;DHT22;6449;47.666;9.160;2023-07-29T21:03:26;18.70;99.90
12771;DHT22;6449;47.666;9.160;2023-07-29T21:08:19;18.70;99.90
12771;DHT22;6449;47.666;9.160;2023-07-29T21:13:12;18.40;99.90
12771;DHT22;6449;47.666;9.160;2023-07-29T21:18:07;18.40;99.90
12771;DHT22;6449;47.666;9.160;2023-07-29T21:23:00;18.40;99.90
12771;DHT22;6449;47.666;9.160;2023-07-29T21:27:54;18.40;99.90
12771;DHT22;6449;47.666;9.160;2023-07-29T21:32:47;18.50;99.90
12771;DHT22;6449;47.666;9.160;2023-07-29T21:37:42;18.50;99.90
12771;DHT22;6449;47.666;9.160;2023-07-29T21:42:35;18.40;99.90
12771;DHT22;6449;47.666;9.160;2023-07-29T21:47:29;18.50;99.90
12771;DHT22;6449;47.666;9.160;2023-07-29T21:52:23;18.40;99.90
12771;DHT22;6449;47.666;9.160;2023-07-29T21:57:21;18.40;99.90
12771;DHT22;6449;47.666;9.160;2023-07-29T22:02:14;18.40;99.90
12771;DHT22;6449;47.666;9.160;2023-07-29T22:07:09;18.40;99.90
12771;DHT22;6449;47.666;9.160;2023-07-29T22:12:02;18.50;99.90
12771;DHT22;6449;47.666;9.160;2023-07-29T22:17:01;18.40;99.90
12771;DHT22;6449;47.666;9.160;2023-07-29T22:21:54;18.40;99.90
12771;DHT22;6449;47.666;9.160;2023-07-29T22:26:48;18.30;99.90
12771;DHT22;6449;47.666;9.160;2023-07-29T22:31:41;18.20;99.90
12771;DHT22;6449;47.666;9.160;2023-07-29T22:36:36;18.30;99.90
12771;DHT22;6449;47.666;9.160;2023-07-29T22:41:29;18.10;99.90
12771;DHT22;6449;47.666;9.160;2023-07-29T22:46:23;18.10;99.90
12771;DHT22;6449;47.666;9.160;2023-07-29T22:51:16;18.10;99.90
12771;DHT22;6449;47.666;9.160;2023-07-29T22:56:11;18.10;99.90
12771;DHT22;6449;47.666;9.160;2023-07-29T23:01:04;18.10;99.90
12771;DHT22;6449;47.666;9.160;2023-07-29T23:05:58;18.00;99.90
12771;DHT22;6449;47.666;9.160;2023-07-29T23:10:51;17.90;99.90
12771;DHT22;6449;47.666;9.160;2023-07-29T23:15:47;17.90;99.90
12771;DHT22;6449;47.666;9.160;2023-07-29T23:20:40;17.90;99.90
12771;DHT22;6449;47.666;9.160;2023-07-29T23:25:33;18.00;99.90
12771;DHT22;6449;47.666;9.160;2023-07-29T23:30:27;18.00;99.90
12771;DHT22;6449;47.666;9.160;2023-07-29T23:35:21;18.10;99.90
12771;DHT22;6449;47.666;9.160;2023-07-29T23:40:15;18.10;99.90
12771;DHT22;6449;47.666;9.160;2023-07-29T23:45:09;18.00;99.90
12771;DHT22;6449;47.666;9.160;2023-07-29T23:50:03;18.00;99.90
12771;DHT22;6449;47.666;9.160;2023-07-29T23:54:58;17.90;99.90
12771;DHT22;6449;47.666;9.160;2023-07-29T23:59:52;17.90;99.90
